Weather at Rayak Air Base

Public forecast

Using degrees Celsius for public forecast. Weather courtesy of forecast.io.

Closest aviation weather report (METAR) to Rayak Air Base

Closest report is Beirut Rafic Hariri International Airport, 25.0 nm (46.2 km) W.

2024/05/26 08:00 (retrieved 23 minutes ago)

OLBA 260800Z 23014KT CAVOK 25/17 Q1014 NOSIG

Closest aviation forecast (TAF) to Rayak Air Base

Closest forecast is Beirut Rafic Hariri International Airport, 25.0 nm (46.2 km) W.

2024/05/26 06:00 (retrieved 2 hours ago)

TAF OLBA 260400Z 2606/2712 26012KT 8000 SCT030 BECMG 2620/2622 VRB02KT BECMG 2706/2708 33015KT NSC